sensor_id;sensor_type;location;lat;lon;timestamp;P1;durP1;ratioP1;P2;durP2;ratioP2
69970;SDS011;57301;50.328;8.542;2022-09-09T00:01:10;7.63;;;1.43;;
69970;SDS011;57301;50.328;8.542;2022-09-09T00:03:54;4.28;;;1.55;;
69970;SDS011;57301;50.328;8.542;2022-09-09T00:06:43;5.35;;;1.40;;
69970;SDS011;57301;50.328;8.542;2022-09-09T00:09:16;2.78;;;1.30;;
69970;SDS011;57301;50.328;8.542;2022-09-09T00:11:51;3.72;;;1.40;;
69970;SDS011;57301;50.328;8.542;2022-09-09T00:16:50;2.75;;;1.33;;
69970;SDS011;57301;50.328;8.542;2022-09-09T00:19:31;4.57;;;1.30;;
69970;SDS011;57301;50.328;8.542;2022-09-09T00:22:13;3.42;;;1.40;;
69970;SDS011;57301;50.328;8.542;2022-09-09T00:27:19;5.77;;;1.30;;
69970;SDS011;57301;50.328;8.542;2022-09-09T00:32:46;4.43;;;1.30;;
69970;SDS011;57301;50.328;8.542;2022-09-09T00:35:20;3.70;;;1.23;;
69970;SDS011;57301;50.328;8.542;2022-09-09T00:38:03;4.55;;;1.25;;
69970;SDS011;57301;50.328;8.542;2022-09-09T00:40:56;4.80;;;1.37;;
69970;SDS011;57301;50.328;8.542;2022-09-09T00:43:30;4.53;;;1.40;;
69970;SDS011;57301;50.328;8.542;2022-09-09T00:51:13;3.13;;;1.25;;
69970;SDS011;57301;50.328;8.542;2022-09-09T00:54:00;4.33;;;1.37;;
69970;SDS011;57301;50.328;8.542;2022-09-09T00:56:33;6.15;;;1.75;;
69970;SDS011;57301;50.328;8.542;2022-09-09T00:59:16;3.58;;;1.20;;
69970;SDS011;57301;50.328;8.542;2022-09-09T01:01:53;4.95;;;1.20;;
69970;SDS011;57301;50.328;8.542;2022-09-09T01:04:24;6.47;;;1.42;;
69970;SDS011;57301;50.328;8.542;2022-09-09T01:07:05;3.00;;;1.20;;
69970;SDS011;57301;50.328;8.542;2022-09-09T01:09:46;2.60;;;1.20;;
69970;SDS011;57301;50.328;8.542;2022-09-09T01:12:26;4.35;;;1.20;;
69970;SDS011;57301;50.328;8.542;2022-09-09T01:15:07;3.38;;;1.40;;
69970;SDS011;57301;50.328;8.542;2022-09-09T01:18:00;5.13;;;1.40;;
69970;SDS011;57301;50.328;8.542;2022-09-09T01:23:46;5.65;;;1.40;;
69970;SDS011;57301;50.328;8.542;2022-09-09T01:26:38;4.50;;;1.20;;
69970;SDS011;57301;50.328;8.542;2022-09-09T01:29:11;2.47;;;1.15;;
69970;SDS011;57301;50.328;8.542;2022-09-09T01:31:41;3.90;;;1.40;;
69970;SDS011;57301;50.328;8.542;2022-09-09T01:34:18;3.23;;;1.37;;
69970;SDS011;57301;50.328;8.542;2022-09-09T01:39:32;5.15;;;1.48;;
69970;SDS011;57301;50.328;8.542;2022-09-09T01:42:00;4.32;;;1.40;;
69970;SDS011;57301;50.328;8.542;2022-09-09T01:44:28;4.95;;;1.58;;
69970;SDS011;57301;50.328;8.542;2022-09-09T01:46:56;5.03;;;1.40;;
69970;SDS011;57301;50.328;8.542;2022-09-09T01:49:23;4.45;;;1.42;;
69970;SDS011;57301;50.328;8.542;2022-09-09T01:51:51;4.10;;;1.55;;
69970;SDS011;57301;50.328;8.542;2022-09-09T01:54:20;5.20;;;1.60;;
69970;SDS011;57301;50.328;8.542;2022-09-09T02:00:23;3.13;;;1.30;;
69970;SDS011;57301;50.328;8.542;2022-09-09T02:08:23;5.93;;;1.73;;
69970;SDS011;57301;50.328;8.542;2022-09-09T02:11:07;3.45;;;1.48;;
69970;SDS011;57301;50.328;8.542;2022-09-09T02:13:38;5.87;;;1.50;;
69970;SDS011;57301;50.328;8.542;2022-09-09T02:18:49;7.70;;;1.60;;
69970;SDS011;57301;50.328;8.542;2022-09-09T02:21:19;3.67;;;1.88;;
69970;SDS011;57301;50.328;8.542;2022-09-09T02:23:46;4.40;;;1.30;;
69970;SDS011;57301;50.328;8.542;2022-09-09T02:26:18;4.60;;;1.40;;
69970;SDS011;57301;50.328;8.542;2022-09-09T02:28:48;4.78;;;1.70;;
69970;SDS011;57301;50.328;8.542;2022-09-09T02:31:17;5.15;;;1.40;;
69970;SDS011;57301;50.328;8.542;2022-09-09T02:33:50;4.63;;;1.58;;
69970;SDS011;57301;50.328;8.542;2022-09-09T02:36:20;5.43;;;1.55;;
69970;SDS011;57301;50.328;8.542;2022-09-09T02:38:50;6.03;;;1.73;;
69970;SDS011;57301;50.328;8.542;2022-09-09T02:41:20;3.72;;;1.52;;
69970;SDS011;57301;50.328;8.542;2022-09-09T02:43:50;6.80;;;1.98;;
69970;SDS011;57301;50.328;8.542;2022-09-09T02:46:24;7.47;;;1.95;;
69970;SDS011;57301;50.328;8.542;2022-09-09T02:49:17;5.35;;;1.58;;
69970;SDS011;57301;50.328;8.542;2022-09-09T02:54:41;3.88;;;1.42;;
69970;SDS011;57301;50.328;8.542;2022-09-09T02:57:14;5.10;;;1.40;;
69970;SDS011;57301;50.328;8.542;2022-09-09T02:59:46;6.22;;;1.70;;
69970;SDS011;57301;50.328;8.542;2022-09-09T03:02:12;4.57;;;1.58;;
69970;SDS011;57301;50.328;8.542;2022-09-09T03:04:39;7.03;;;1.93;;
69970;SDS011;57301;50.328;8.542;2022-09-09T03:07:07;5.80;;;2.10;;
69970;SDS011;57301;50.328;8.542;2022-09-09T03:09:36;5.72;;;1.92;;
69970;SDS011;57301;50.328;8.542;2022-09-09T03:12:02;4.47;;;1.60;;
69970;SDS011;57301;50.328;8.542;2022-09-09T03:14:30;3.83;;;1.73;;
69970;SDS011;57301;50.328;8.542;2022-09-09T03:16:57;4.10;;;1.93;;
69970;SDS011;57301;50.328;8.542;2022-09-09T03:19:26;5.28;;;1.98;;
69970;SDS011;57301;50.328;8.542;2022-09-09T03:21:53;4.95;;;2.03;;
69970;SDS011;57301;50.328;8.542;2022-09-09T03:24:20;4.88;;;2.10;;
69970;SDS011;57301;50.328;8.542;2022-09-09T03:26:47;4.88;;;1.73;;
69970;SDS011;57301;50.328;8.542;2022-09-09T03:29:13;3.80;;;1.87;;
69970;SDS011;57301;50.328;8.542;2022-09-09T03:31:40;5.75;;;2.20;;
69970;SDS011;57301;50.328;8.542;2022-09-09T03:34:08;4.38;;;1.90;;
69970;SDS011;57301;50.328;8.542;2022-09-09T03:36:36;5.25;;;2.15;;
69970;SDS011;57301;50.328;8.542;2022-09-09T03:39:02;5.05;;;2.20;;
69970;SDS011;57301;50.328;8.542;2022-09-09T03:41:29;4.40;;;2.30;;
69970;SDS011;57301;50.328;8.542;2022-09-09T03:43:56;6.80;;;2.58;;
69970;SDS011;57301;50.328;8.542;2022-09-09T03:46:24;5.43;;;2.55;;
69970;SDS011;57301;50.328;8.542;2022-09-09T03:48:52;8.15;;;2.55;;
69970;SDS011;57301;50.328;8.542;2022-09-09T03:51:18;6.95;;;3.33;;
69970;SDS011;57301;50.328;8.542;2022-09-09T03:53:45;7.13;;;2.90;;
69970;SDS011;57301;50.328;8.542;2022-09-09T03:56:12;5.05;;;2.30;;
69970;SDS011;57301;50.328;8.542;2022-09-09T03:58:39;4.82;;;2.33;;
69970;SDS011;57301;50.328;8.542;2022-09-09T04:01:07;5.97;;;2.50;;
69970;SDS011;57301;50.328;8.542;2022-09-09T04:03:40;4.78;;;2.40;;
69970;SDS011;57301;50.328;8.542;2022-09-09T04:06:08;6.60;;;2.47;;
69970;SDS011;57301;50.328;8.542;2022-09-09T04:08:36;5.70;;;2.35;;
69970;SDS011;57301;50.328;8.542;2022-09-09T04:11:04;4.35;;;2.30;;
69970;SDS011;57301;50.328;8.542;2022-09-09T04:13:32;5.90;;;2.10;;
69970;SDS011;57301;50.328;8.542;2022-09-09T04:16:00;4.90;;;2.28;;
69970;SDS011;57301;50.328;8.542;2022-09-09T04:18:28;5.57;;;2.37;;
69970;SDS011;57301;50.328;8.542;2022-09-09T04:20:54;7.80;;;2.60;;
69970;SDS011;57301;50.328;8.542;2022-09-09T04:23:23;6.35;;;2.40;;
69970;SDS011;57301;50.328;8.542;2022-09-09T04:25:52;5.78;;;2.60;;
69970;SDS011;57301;50.328;8.542;2022-09-09T04:28:20;6.97;;;2.78;;
69970;SDS011;57301;50.328;8.542;2022-09-09T04:30:48;6.27;;;3.20;;
69970;SDS011;57301;50.328;8.542;2022-09-09T04:33:15;4.50;;;2.75;;
69970;SDS011;57301;50.328;8.542;2022-09-09T04:35:44;5.00;;;2.83;;
69970;SDS011;57301;50.328;8.542;2022-09-09T04:38:12;5.88;;;2.70;;
69970;SDS011;57301;50.328;8.542;2022-09-09T04:40:38;4.80;;;3.00;;
69970;SDS011;57301;50.328;8.542;2022-09-09T04:43:09;5.90;;;3.03;;
69970;SDS011;57301;50.328;8.542;2022-09-09T04:45:39;6.90;;;2.85;;
69970;SDS011;57301;50.328;8.542;2022-09-09T04:48:07;6.38;;;3.15;;
69970;SDS011;57301;50.328;8.542;2022-09-09T04:50:35;5.20;;;2.85;;
69970;SDS011;57301;50.328;8.542;2022-09-09T04:53:02;5.78;;;2.88;;
69970;SDS011;57301;50.328;8.542;2022-09-09T04:55:31;4.90;;;3.17;;
69970;SDS011;57301;50.328;8.542;2022-09-09T04:57:58;3.35;;;2.42;;
69970;SDS011;57301;50.328;8.542;2022-09-09T05:00:29;6.60;;;2.63;;
69970;SDS011;57301;50.328;8.542;2022-09-09T05:02:56;5.40;;;2.70;;
69970;SDS011;57301;50.328;8.542;2022-09-09T05:05:23;6.40;;;2.95;;
69970;SDS011;57301;50.328;8.542;2022-09-09T05:07:49;6.50;;;2.90;;
69970;SDS011;57301;50.328;8.542;2022-09-09T05:10:16;8.27;;;2.63;;
69970;SDS011;57301;50.328;8.542;2022-09-09T05:12:51;6.40;;;2.90;;
69970;SDS011;57301;50.328;8.542;2022-09-09T05:15:19;8.75;;;2.60;;
69970;SDS011;57301;50.328;8.542;2022-09-09T05:17:46;5.40;;;2.67;;
69970;SDS011;57301;50.328;8.542;2022-09-09T05:20:13;6.20;;;2.90;;
69970;SDS011;57301;50.328;8.542;2022-09-09T05:22:42;5.53;;;2.60;;
69970;SDS011;57301;50.328;8.542;2022-09-09T05:25:09;5.63;;;2.90;;
69970;SDS011;57301;50.328;8.542;2022-09-09T05:27:36;8.30;;;3.10;;
69970;SDS011;57301;50.328;8.542;2022-09-09T05:30:03;6.65;;;2.90;;
69970;SDS011;57301;50.328;8.542;2022-09-09T05:32:30;6.40;;;3.30;;
69970;SDS011;57301;50.328;8.542;2022-09-09T05:35:00;6.88;;;2.85;;
69970;SDS011;57301;50.328;8.542;2022-09-09T05:37:27;5.45;;;2.53;;
69970;SDS011;57301;50.328;8.542;2022-09-09T05:39:54;6.38;;;2.45;;
69970;SDS011;57301;50.328;8.542;2022-09-09T05:42:20;7.60;;;2.65;;
69970;SDS011;57301;50.328;8.542;2022-09-09T05:44:47;7.83;;;3.10;;
69970;SDS011;57301;50.328;8.542;2022-09-09T05:47:13;4.95;;;2.40;;
69970;SDS011;57301;50.328;8.542;2022-09-09T05:49:40;5.32;;;2.38;;
69970;SDS011;57301;50.328;8.542;2022-09-09T05:52:07;5.97;;;2.40;;
69970;SDS011;57301;50.328;8.542;2022-09-09T05:54:33;4.75;;;2.38;;
69970;SDS011;57301;50.328;8.542;2022-09-09T05:57:00;7.60;;;2.43;;
69970;SDS011;57301;50.328;8.542;2022-09-09T05:59:26;4.55;;;2.47;;
69970;SDS011;57301;50.328;8.542;2022-09-09T06:01:54;6.53;;;2.13;;
69970;SDS011;57301;50.328;8.542;2022-09-09T06:04:21;5.78;;;2.40;;
69970;SDS011;57301;50.328;8.542;2022-09-09T06:06:48;4.20;;;2.20;;
69970;SDS011;57301;50.328;8.542;2022-09-09T06:09:15;4.17;;;2.40;;
69970;SDS011;57301;50.328;8.542;2022-09-09T06:11:41;4.55;;;2.33;;
69970;SDS011;57301;50.328;8.542;2022-09-09T06:14:08;6.47;;;2.97;;
69970;SDS011;57301;50.328;8.542;2022-09-09T06:16:34;8.30;;;3.70;;
69970;SDS011;57301;50.328;8.542;2022-09-09T06:19:04;6.15;;;2.60;;
69970;SDS011;57301;50.328;8.542;2022-09-09T06:21:31;6.67;;;2.50;;
69970;SDS011;57301;50.328;8.542;2022-09-09T06:24:04;5.05;;;2.50;;
69970;SDS011;57301;50.328;8.542;2022-09-09T06:26:37;5.80;;;2.35;;
69970;SDS011;57301;50.328;8.542;2022-09-09T06:29:07;5.22;;;2.25;;
69970;SDS011;57301;50.328;8.542;2022-09-09T06:31:35;4.25;;;2.00;;
69970;SDS011;57301;50.328;8.542;2022-09-09T06:34:06;3.97;;;2.13;;
69970;SDS011;57301;50.328;8.542;2022-09-09T06:36:35;4.63;;;1.98;;
69970;SDS011;57301;50.328;8.542;2022-09-09T06:39:03;6.07;;;2.03;;
69970;SDS011;57301;50.328;8.542;2022-09-09T06:41:31;6.18;;;2.00;;
69970;SDS011;57301;50.328;8.542;2022-09-09T06:43:59;4.57;;;2.17;;
69970;SDS011;57301;50.328;8.542;2022-09-09T06:46:27;4.53;;;1.87;;
69970;SDS011;57301;50.328;8.542;2022-09-09T06:48:57;5.68;;;1.80;;
69970;SDS011;57301;50.328;8.542;2022-09-09T06:51:33;4.22;;;1.63;;
69970;SDS011;57301;50.328;8.542;2022-09-09T06:54:02;4.72;;;1.83;;
69970;SDS011;57301;50.328;8.542;2022-09-09T06:56:34;5.05;;;2.00;;
69970;SDS011;57301;50.328;8.542;2022-09-09T06:59:03;5.67;;;1.80;;
69970;SDS011;57301;50.328;8.542;2022-09-09T07:01:32;6.30;;;1.80;;
69970;SDS011;57301;50.328;8.542;2022-09-09T07:04:01;6.50;;;1.63;;
69970;SDS011;57301;50.328;8.542;2022-09-09T07:06:31;4.20;;;1.73;;
69970;SDS011;57301;50.328;8.542;2022-09-09T07:09:02;4.68;;;1.48;;
69970;SDS011;57301;50.328;8.542;2022-09-09T07:11:32;5.87;;;2.00;;
69970;SDS011;57301;50.328;8.542;2022-09-09T07:14:03;6.22;;;2.10;;
69970;SDS011;57301;50.328;8.542;2022-09-09T07:16:30;4.45;;;2.13;;
69970;SDS011;57301;50.328;8.542;2022-09-09T07:18:59;5.90;;;2.00;;
69970;SDS011;57301;50.328;8.542;2022-09-09T07:21:27;8.13;;;2.60;;
69970;SDS011;57301;50.328;8.542;2022-09-09T07:23:55;7.10;;;2.60;;
69970;SDS011;57301;50.328;8.542;2022-09-09T07:26:23;6.47;;;2.30;;
69970;SDS011;57301;50.328;8.542;2022-09-09T07:28:51;5.38;;;2.22;;
69970;SDS011;57301;50.328;8.542;2022-09-09T07:31:19;4.68;;;2.50;;
69970;SDS011;57301;50.328;8.542;2022-09-09T07:33:48;5.45;;;2.53;;
69970;SDS011;57301;50.328;8.542;2022-09-09T07:36:15;3.67;;;2.30;;
69970;SDS011;57301;50.328;8.542;2022-09-09T07:38:51;5.85;;;3.00;;
69970;SDS011;57301;50.328;8.542;2022-09-09T07:41:23;7.45;;;3.22;;
69970;SDS011;57301;50.328;8.542;2022-09-09T07:43:52;5.78;;;3.40;;
69970;SDS011;57301;50.328;8.542;2022-09-09T07:46:22;6.10;;;3.05;;
69970;SDS011;57301;50.328;8.542;2022-09-09T07:48:55;4.90;;;3.10;;
69970;SDS011;57301;50.328;8.542;2022-09-09T07:51:24;6.75;;;3.28;;
69970;SDS011;57301;50.328;8.542;2022-09-09T07:53:53;7.22;;;4.35;;
69970;SDS011;57301;50.328;8.542;2022-09-09T07:56:24;7.25;;;3.80;;
69970;SDS011;57301;50.328;8.542;2022-09-09T07:58:52;6.13;;;2.85;;
69970;SDS011;57301;50.328;8.542;2022-09-09T08:04:07;6.38;;;2.28;;
69970;SDS011;57301;50.328;8.542;2022-09-09T08:06:37;6.20;;;2.80;;
69970;SDS011;57301;50.328;8.542;2022-09-09T08:09:06;8.80;;;3.08;;
69970;SDS011;57301;50.328;8.542;2022-09-09T08:11:34;5.25;;;2.80;;
69970;SDS011;57301;50.328;8.542;2022-09-09T08:14:05;6.07;;;2.87;;
69970;SDS011;57301;50.328;8.542;2022-09-09T08:16:36;6.35;;;3.17;;
69970;SDS011;57301;50.328;8.542;2022-09-09T08:19:05;5.28;;;2.42;;
69970;SDS011;57301;50.328;8.542;2022-09-09T08:21:34;6.93;;;3.05;;
69970;SDS011;57301;50.328;8.542;2022-09-09T08:24:02;8.82;;;3.25;;
69970;SDS011;57301;50.328;8.542;2022-09-09T08:26:38;4.73;;;2.67;;
69970;SDS011;57301;50.328;8.542;2022-09-09T08:29:08;7.18;;;2.85;;
69970;SDS011;57301;50.328;8.542;2022-09-09T08:31:37;5.43;;;2.60;;
69970;SDS011;57301;50.328;8.542;2022-09-09T08:34:05;5.68;;;2.67;;
69970;SDS011;57301;50.328;8.542;2022-09-09T08:36:35;6.25;;;2.75;;
69970;SDS011;57301;50.328;8.542;2022-09-09T08:39:04;7.27;;;2.63;;
69970;SDS011;57301;50.328;8.542;2022-09-09T08:44:07;7.38;;;2.50;;
69970;SDS011;57301;50.328;8.542;2022-09-09T08:46:39;5.50;;;2.78;;
69970;SDS011;57301;50.328;8.542;2022-09-09T08:52:19;7.00;;;2.83;;
69970;SDS011;57301;50.328;8.542;2022-09-09T08:54:48;6.05;;;2.40;;
69970;SDS011;57301;50.328;8.542;2022-09-09T08:57:19;5.13;;;2.05;;
69970;SDS011;57301;50.328;8.542;2022-09-09T08:59:52;6.43;;;2.10;;
69970;SDS011;57301;50.328;8.542;2022-09-09T09:02:38;7.72;;;2.50;;
69970;SDS011;57301;50.328;8.542;2022-09-09T09:05:36;7.93;;;3.07;;
69970;SDS011;57301;50.328;8.542;2022-09-09T09:08:23;7.93;;;2.45;;
69970;SDS011;57301;50.328;8.542;2022-09-09T09:10:56;5.55;;;2.25;;
69970;SDS011;57301;50.328;8.542;2022-09-09T09:13:45;6.78;;;2.58;;
69970;SDS011;57301;50.328;8.542;2022-09-09T09:16:31;15.20;;;8.30;;
69970;SDS011;57301;50.328;8.542;2022-09-09T09:19:02;6.03;;;2.50;;
69970;SDS011;57301;50.328;8.542;2022-09-09T09:21:45;5.30;;;3.20;;
69970;SDS011;57301;50.328;8.542;2022-09-09T09:24:18;9.93;;;2.65;;
69970;SDS011;57301;50.328;8.542;2022-09-09T09:26:47;5.35;;;2.03;;
69970;SDS011;57301;50.328;8.542;2022-09-09T09:29:15;9.38;;;3.47;;
69970;SDS011;57301;50.328;8.542;2022-09-09T09:31:53;5.33;;;2.50;;
69970;SDS011;57301;50.328;8.542;2022-09-09T09:34:23;5.38;;;2.15;;
69970;SDS011;57301;50.328;8.542;2022-09-09T09:36:57;3.45;;;1.80;;
69970;SDS011;57301;50.328;8.542;2022-09-09T09:39:28;10.98;;;4.55;;
69970;SDS011;57301;50.328;8.542;2022-09-09T09:42:17;6.32;;;1.98;;
69970;SDS011;57301;50.328;8.542;2022-09-09T09:44:48;6.57;;;2.10;;
69970;SDS011;57301;50.328;8.542;2022-09-09T09:47:16;7.32;;;3.25;;
69970;SDS011;57301;50.328;8.542;2022-09-09T09:49:51;4.68;;;1.90;;
69970;SDS011;57301;50.328;8.542;2022-09-09T09:52:23;4.97;;;2.00;;
69970;SDS011;57301;50.328;8.542;2022-09-09T09:54:50;5.07;;;1.95;;
69970;SDS011;57301;50.328;8.542;2022-09-09T09:57:22;7.00;;;2.10;;
69970;SDS011;57301;50.328;8.542;2022-09-09T10:02:47;4.03;;;1.83;;
69970;SDS011;57301;50.328;8.542;2022-09-09T10:05:48;4.45;;;2.10;;
69970;SDS011;57301;50.328;8.542;2022-09-09T10:08:12;5.03;;;2.30;;
69970;SDS011;57301;50.328;8.542;2022-09-09T10:14:06;3.40;;;1.88;;
69970;SDS011;57301;50.328;8.542;2022-09-09T10:20:00;4.72;;;1.90;;
69970;SDS011;57301;50.328;8.542;2022-09-09T10:22:50;5.80;;;1.90;;
69970;SDS011;57301;50.328;8.542;2022-09-09T10:25:40;5.40;;;1.60;;
69970;SDS011;57301;50.328;8.542;2022-09-09T10:31:20;3.75;;;1.50;;
69970;SDS011;57301;50.328;8.542;2022-09-09T10:34:02;5.15;;;1.70;;
69970;SDS011;57301;50.328;8.542;2022-09-09T10:36:47;3.45;;;1.50;;
69970;SDS011;57301;50.328;8.542;2022-09-09T10:42:29;3.65;;;1.40;;
69970;SDS011;57301;50.328;8.542;2022-09-09T10:50:42;4.13;;;1.33;;
69970;SDS011;57301;50.328;8.542;2022-09-09T10:56:06;5.07;;;1.55;;
69970;SDS011;57301;50.328;8.542;2022-09-09T10:58:44;3.47;;;1.42;;
69970;SDS011;57301;50.328;8.542;2022-09-09T11:01:36;3.65;;;1.63;;
69970;SDS011;57301;50.328;8.542;2022-09-09T11:04:19;5.38;;;1.60;;
69970;SDS011;57301;50.328;8.542;2022-09-09T11:06:56;4.67;;;1.73;;
69970;SDS011;57301;50.328;8.542;2022-09-09T11:09:24;5.00;;;1.58;;
69970;SDS011;57301;50.328;8.542;2022-09-09T11:11:59;5.75;;;1.40;;
69970;SDS011;57301;50.328;8.542;2022-09-09T11:14:36;3.60;;;1.40;;
69970;SDS011;57301;50.328;8.542;2022-09-09T11:17:14;4.40;;;1.73;;
69970;SDS011;57301;50.328;8.542;2022-09-09T11:19:44;3.97;;;1.70;;
69970;SDS011;57301;50.328;8.542;2022-09-09T11:25:01;5.43;;;1.58;;
69970;SDS011;57301;50.328;8.542;2022-09-09T11:30:43;6.63;;;2.13;;
69970;SDS011;57301;50.328;8.542;2022-09-09T11:38:47;5.50;;;1.52;;
69970;SDS011;57301;50.328;8.542;2022-09-09T11:41:17;4.65;;;1.95;;
69970;SDS011;57301;50.328;8.542;2022-09-09T11:43:51;4.82;;;1.77;;
69970;SDS011;57301;50.328;8.542;2022-09-09T11:46:19;3.87;;;1.40;;
69970;SDS011;57301;50.328;8.542;2022-09-09T11:48:59;4.65;;;1.60;;
69970;SDS011;57301;50.328;8.542;2022-09-09T11:51:27;5.35;;;1.40;;
69970;SDS011;57301;50.328;8.542;2022-09-09T11:53:57;4.10;;;1.60;;
69970;SDS011;57301;50.328;8.542;2022-09-09T11:56:45;4.25;;;1.33;;
69970;SDS011;57301;50.328;8.542;2022-09-09T11:59:25;5.50;;;1.50;;
69970;SDS011;57301;50.328;8.542;2022-09-09T12:01:57;5.18;;;1.40;;
69970;SDS011;57301;50.328;8.542;2022-09-09T12:09:47;7.07;;;1.40;;
69970;SDS011;57301;50.328;8.542;2022-09-09T12:12:22;6.33;;;1.50;;
69970;SDS011;57301;50.328;8.542;2022-09-09T12:14:57;4.57;;;1.20;;
69970;SDS011;57301;50.328;8.542;2022-09-09T12:25:49;6.00;;;1.80;;
69970;SDS011;57301;50.328;8.542;2022-09-09T12:31:23;5.05;;;1.20;;
69970;SDS011;57301;50.328;8.542;2022-09-09T12:34:02;5.85;;;1.35;;
69970;SDS011;57301;50.328;8.542;2022-09-09T12:36:58;3.53;;;1.20;;
69970;SDS011;57301;50.328;8.542;2022-09-09T12:39:29;4.03;;;1.23;;
69970;SDS011;57301;50.328;8.542;2022-09-09T12:42:03;6.03;;;1.40;;
69970;SDS011;57301;50.328;8.542;2022-09-09T12:44:30;5.53;;;1.35;;
69970;SDS011;57301;50.328;8.542;2022-09-09T12:47:00;6.25;;;1.50;;
69970;SDS011;57301;50.328;8.542;2022-09-09T12:49:30;3.13;;;1.40;;
69970;SDS011;57301;50.328;8.542;2022-09-09T12:52:04;4.27;;;1.50;;
69970;SDS011;57301;50.328;8.542;2022-09-09T12:54:42;3.65;;;1.20;;
69970;SDS011;57301;50.328;8.542;2022-09-09T12:57:16;3.85;;;1.08;;
69970;SDS011;57301;50.328;8.542;2022-09-09T12:59:43;11.30;;;1.60;;
69970;SDS011;57301;50.328;8.542;2022-09-09T13:02:18;4.00;;;1.10;;
69970;SDS011;57301;50.328;8.542;2022-09-09T13:04:49;5.60;;;1.30;;
69970;SDS011;57301;50.328;8.542;2022-09-09T13:07:17;3.70;;;1.08;;
69970;SDS011;57301;50.328;8.542;2022-09-09T13:09:45;3.63;;;1.05;;
69970;SDS011;57301;50.328;8.542;2022-09-09T13:12:14;4.47;;;1.30;;
69970;SDS011;57301;50.328;8.542;2022-09-09T13:14:52;3.28;;;0.98;;
69970;SDS011;57301;50.328;8.542;2022-09-09T13:17:23;2.40;;;1.00;;
69970;SDS011;57301;50.328;8.542;2022-09-09T13:19:53;4.25;;;1.20;;
69970;SDS011;57301;50.328;8.542;2022-09-09T13:27:41;3.95;;;1.20;;
69970;SDS011;57301;50.328;8.542;2022-09-09T13:33:04;3.63;;;1.10;;
69970;SDS011;57301;50.328;8.542;2022-09-09T13:35:31;6.22;;;1.60;;
69970;SDS011;57301;50.328;8.542;2022-09-09T13:37:58;3.90;;;1.10;;
69970;SDS011;57301;50.328;8.542;2022-09-09T13:40:33;6.65;;;1.20;;
69970;SDS011;57301;50.328;8.542;2022-09-09T13:43:00;3.63;;;0.97;;
69970;SDS011;57301;50.328;8.542;2022-09-09T13:45:28;4.38;;;1.00;;
69970;SDS011;57301;50.328;8.542;2022-09-09T13:47:55;4.13;;;0.82;;
69970;SDS011;57301;50.328;8.542;2022-09-09T13:50:26;4.60;;;0.90;;
69970;SDS011;57301;50.328;8.542;2022-09-09T13:52:57;3.03;;;0.80;;
69970;SDS011;57301;50.328;8.542;2022-09-09T13:55:25;2.57;;;0.90;;
69970;SDS011;57301;50.328;8.542;2022-09-09T13:58:01;2.63;;;0.90;;
69970;SDS011;57301;50.328;8.542;2022-09-09T14:00:32;3.97;;;1.40;;
69970;SDS011;57301;50.328;8.542;2022-09-09T14:03:01;4.40;;;1.20;;
69970;SDS011;57301;50.328;8.542;2022-09-09T14:05:29;2.80;;;0.85;;
69970;SDS011;57301;50.328;8.542;2022-09-09T14:07:59;3.03;;;0.80;;
69970;SDS011;57301;50.328;8.542;2022-09-09T14:10:29;3.63;;;0.90;;
69970;SDS011;57301;50.328;8.542;2022-09-09T14:12:56;3.25;;;1.10;;
69970;SDS011;57301;50.328;8.542;2022-09-09T14:15:22;3.60;;;0.93;;
69970;SDS011;57301;50.328;8.542;2022-09-09T14:17:49;2.83;;;1.10;;
69970;SDS011;57301;50.328;8.542;2022-09-09T14:20:16;4.60;;;1.27;;
69970;SDS011;57301;50.328;8.542;2022-09-09T14:22:43;4.28;;;1.30;;
69970;SDS011;57301;50.328;8.542;2022-09-09T14:25:10;4.15;;;1.10;;
69970;SDS011;57301;50.328;8.542;2022-09-09T14:27:39;3.75;;;1.20;;
69970;SDS011;57301;50.328;8.542;2022-09-09T14:30:06;4.95;;;1.15;;
69970;SDS011;57301;50.328;8.542;2022-09-09T14:32:33;3.97;;;1.00;;
69970;SDS011;57301;50.328;8.542;2022-09-09T14:34:59;4.32;;;1.30;;
69970;SDS011;57301;50.328;8.542;2022-09-09T14:37:27;4.03;;;1.33;;
69970;SDS011;57301;50.328;8.542;2022-09-09T14:39:53;3.97;;;1.20;;
69970;SDS011;57301;50.328;8.542;2022-09-09T14:42:21;4.00;;;1.30;;
69970;SDS011;57301;50.328;8.542;2022-09-09T14:44:48;5.77;;;1.30;;
69970;SDS011;57301;50.328;8.542;2022-09-09T14:47:14;5.57;;;1.35;;
69970;SDS011;57301;50.328;8.542;2022-09-09T14:49:41;4.72;;;1.10;;
69970;SDS011;57301;50.328;8.542;2022-09-09T14:52:11;4.28;;;1.13;;
69970;SDS011;57301;50.328;8.542;2022-09-09T14:54:38;5.00;;;1.25;;
69970;SDS011;57301;50.328;8.542;2022-09-09T14:57:05;6.77;;;2.40;;
69970;SDS011;57301;50.328;8.542;2022-09-09T14:59:32;3.50;;;1.02;;
69970;SDS011;57301;50.328;8.542;2022-09-09T15:01:58;4.95;;;1.50;;
69970;SDS011;57301;50.328;8.542;2022-09-09T15:04:30;3.95;;;1.27;;
69970;SDS011;57301;50.328;8.542;2022-09-09T15:06:56;2.97;;;1.15;;
69970;SDS011;57301;50.328;8.542;2022-09-09T15:09:22;3.57;;;1.20;;
69970;SDS011;57301;50.328;8.542;2022-09-09T15:11:49;4.15;;;1.17;;
69970;SDS011;57301;50.328;8.542;2022-09-09T15:14:15;4.32;;;1.08;;
69970;SDS011;57301;50.328;8.542;2022-09-09T15:16:42;3.00;;;1.00;;
69970;SDS011;57301;50.328;8.542;2022-09-09T15:19:08;5.32;;;1.10;;
69970;SDS011;57301;50.328;8.542;2022-09-09T15:21:35;3.27;;;1.00;;
69970;SDS011;57301;50.328;8.542;2022-09-09T15:24:02;3.83;;;1.27;;
69970;SDS011;57301;50.328;8.542;2022-09-09T15:26:30;3.35;;;0.90;;
69970;SDS011;57301;50.328;8.542;2022-09-09T15:28:57;3.85;;;1.15;;
69970;SDS011;57301;50.328;8.542;2022-09-09T15:31:26;5.15;;;1.20;;
69970;SDS011;57301;50.328;8.542;2022-09-09T15:33:56;6.17;;;1.00;;
69970;SDS011;57301;50.328;8.542;2022-09-09T15:36:27;4.00;;;1.23;;
69970;SDS011;57301;50.328;8.542;2022-09-09T15:38:56;3.42;;;0.90;;
69970;SDS011;57301;50.328;8.542;2022-09-09T15:41:22;4.75;;;1.25;;
69970;SDS011;57301;50.328;8.542;2022-09-09T15:43:50;3.58;;;1.10;;
69970;SDS011;57301;50.328;8.542;2022-09-09T15:46:22;5.30;;;1.40;;
69970;SDS011;57301;50.328;8.542;2022-09-09T15:48:50;3.83;;;1.13;;
69970;SDS011;57301;50.328;8.542;2022-09-09T15:51:20;3.67;;;1.00;;
69970;SDS011;57301;50.328;8.542;2022-09-09T15:54:06;3.35;;;1.08;;
69970;SDS011;57301;50.328;8.542;2022-09-09T15:56:33;4.15;;;1.50;;
69970;SDS011;57301;50.328;8.542;2022-09-09T15:59:01;4.83;;;1.20;;
69970;SDS011;57301;50.328;8.542;2022-09-09T16:01:31;4.30;;;1.23;;
69970;SDS011;57301;50.328;8.542;2022-09-09T16:03:58;3.28;;;1.17;;
69970;SDS011;57301;50.328;8.542;2022-09-09T16:06:26;2.90;;;1.20;;
69970;SDS011;57301;50.328;8.542;2022-09-09T16:08:55;3.15;;;1.20;;
69970;SDS011;57301;50.328;8.542;2022-09-09T16:11:33;4.13;;;1.30;;
69970;SDS011;57301;50.328;8.542;2022-09-09T16:14:03;3.55;;;1.10;;
69970;SDS011;57301;50.328;8.542;2022-09-09T16:16:30;3.13;;;1.20;;
69970;SDS011;57301;50.328;8.542;2022-09-09T16:18:58;5.93;;;1.55;;
69970;SDS011;57301;50.328;8.542;2022-09-09T16:21:28;3.75;;;1.23;;
69970;SDS011;57301;50.328;8.542;2022-09-09T16:23:57;2.77;;;1.40;;
69970;SDS011;57301;50.328;8.542;2022-09-09T16:26:25;3.65;;;1.27;;
69970;SDS011;57301;50.328;8.542;2022-09-09T16:28:53;3.95;;;1.40;;
69970;SDS011;57301;50.328;8.542;2022-09-09T16:31:21;4.80;;;1.40;;
69970;SDS011;57301;50.328;8.542;2022-09-09T16:33:50;4.97;;;1.20;;
69970;SDS011;57301;50.328;8.542;2022-09-09T16:36:21;5.57;;;1.40;;
69970;SDS011;57301;50.328;8.542;2022-09-09T16:38:53;5.47;;;1.60;;
69970;SDS011;57301;50.328;8.542;2022-09-09T16:41:21;4.78;;;1.40;;
69970;SDS011;57301;50.328;8.542;2022-09-09T16:43:51;4.72;;;1.60;;
69970;SDS011;57301;50.328;8.542;2022-09-09T16:46:19;4.75;;;1.70;;
69970;SDS011;57301;50.328;8.542;2022-09-09T16:48:47;3.83;;;1.23;;
69970;SDS011;57301;50.328;8.542;2022-09-09T16:51:19;9.63;;;1.70;;
69970;SDS011;57301;50.328;8.542;2022-09-09T16:53:49;5.63;;;1.60;;